createdAt,value
2023-04-15T00:02:15.146Z,13.02
2023-04-15T00:04:41.969Z,15.38
2023-04-15T00:07:08.696Z,14.23
2023-04-15T00:09:35.573Z,15.65
2023-04-15T00:12:02.652Z,12.02
2023-04-15T00:14:29.404Z,15.27
2023-04-15T00:16:57.436Z,14.18
2023-04-15T00:19:25.339Z,10.15
2023-04-15T00:21:52.055Z,14.77
2023-04-15T00:24:18.753Z,13.75
2023-04-15T00:26:45.416Z,12.27
2023-04-15T00:29:12.125Z,17.30
2023-04-15T00:31:38.790Z,12.65
2023-04-15T00:34:05.457Z,13.88
2023-04-15T00:36:33.893Z,13.27
2023-04-15T00:39:00.982Z,10.30
2023-04-15T00:41:27.968Z,12.63
2023-04-15T00:43:54.702Z,11.48
2023-04-15T00:46:22.638Z,11.45
2023-04-15T00:48:50.171Z,13.88
2023-04-15T00:51:16.967Z,11.27
2023-04-15T00:53:43.801Z,12.57
2023-04-15T00:56:10.707Z,13.02
2023-04-15T00:58:37.845Z,9.40
2023-04-15T01:01:04.779Z,12.20
2023-04-15T01:03:31.628Z,13.10
2023-04-15T01:05:58.853Z,16.55
2023-04-15T01:08:29.331Z,10.95
2023-04-15T01:10:58.681Z,9.20
2023-04-15T01:13:25.724Z,11.15
2023-04-15T01:15:53.294Z,12.00
2023-04-15T01:18:20.872Z,11.30
2023-04-15T01:20:47.564Z,9.43
2023-04-15T01:23:14.524Z,13.02
2023-04-15T01:25:43.546Z,10.50
2023-04-15T01:28:10.847Z,10.40
2023-04-15T01:30:38.020Z,9.32
2023-04-15T01:33:04.773Z,13.55
2023-04-15T01:35:32.198Z,11.82
2023-04-15T01:38:10.570Z,12.05
2023-04-15T01:40:37.298Z,11.48
2023-04-15T01:43:03.987Z,11.05
2023-04-15T01:45:31.071Z,10.50
2023-04-15T01:47:57.894Z,13.43
2023-04-15T01:50:24.992Z,11.55
2023-04-15T01:52:52.144Z,12.98
2023-04-15T01:55:19.013Z,13.05
2023-04-15T01:57:46.501Z,14.27
2023-04-15T02:00:13.443Z,11.68
2023-04-15T02:02:40.338Z,11.63
2023-04-15T02:05:07.506Z,11.05
2023-04-15T02:07:34.239Z,15.18
2023-04-15T02:10:01.285Z,11.85
2023-04-15T02:12:28.123Z,13.27
2023-04-15T02:14:55.858Z,11.88
2023-04-15T02:17:22.807Z,12.77
2023-04-15T02:19:49.526Z,12.63
2023-04-15T02:22:18.768Z,14.43
2023-04-15T02:24:48.432Z,15.32
2023-04-15T02:27:18.795Z,11.80
2023-04-15T02:29:46.369Z,11.63
2023-04-15T02:32:13.744Z,15.48
2023-04-15T02:34:42.662Z,15.30
2023-04-15T02:37:13.560Z,12.38
2023-04-15T02:39:40.232Z,15.85
2023-04-15T02:42:07.453Z,14.65
2023-04-15T02:44:36.394Z,13.15
2023-04-15T02:47:04.847Z,11.93
2023-04-15T02:49:31.530Z,14.57
2023-04-15T02:51:59.957Z,14.85
2023-04-15T02:54:28.903Z,13.68
2023-04-15T02:56:56.204Z,17.13
2023-04-15T02:59:23.058Z,14.20
2023-04-15T03:01:49.974Z,14.88
2023-04-15T03:04:17.007Z,11.90
2023-04-15T03:06:43.976Z,12.57
2023-04-15T03:09:10.673Z,12.00
2023-04-15T03:11:40.649Z,16.35
2023-04-15T03:14:07.387Z,14.00
2023-04-15T03:16:34.078Z,19.48
2023-04-15T03:19:01.178Z,14.00
2023-04-15T03:21:28.152Z,12.57
2023-04-15T03:23:54.832Z,12.32
2023-04-15T03:26:29.289Z,11.63
2023-04-15T03:28:56.221Z,16.85
2023-04-15T03:31:23.035Z,16.67
2023-04-15T03:33:50.035Z,16.38
2023-04-15T03:36:16.873Z,15.65
2023-04-15T03:38:43.617Z,24.10
2023-04-15T03:41:10.561Z,11.90
2023-04-15T03:43:37.245Z,13.45
2023-04-15T03:46:04.045Z,15.45
2023-04-15T03:48:31.038Z,13.82
2023-04-15T03:50:57.718Z,17.60
2023-04-15T03:53:24.515Z,14.23
2023-04-15T03:55:51.650Z,14.15
2023-04-15T03:58:18.914Z,16.40
2023-04-15T04:00:45.896Z,19.65
2023-04-15T04:03:12.817Z,16.85
2023-04-15T04:05:41.528Z,18.55
2023-04-15T04:08:08.260Z,11.73
2023-04-15T04:10:35.117Z,16.75
2023-04-15T04:13:02.080Z,16.42
2023-04-15T04:15:28.798Z,15.35
2023-04-15T04:17:56.153Z,16.92
2023-04-15T04:20:22.957Z,21.77
2023-04-15T04:22:50.187Z,14.38
2023-04-15T04:25:17.079Z,15.48
2023-04-15T04:27:45.359Z,14.65
2023-04-15T04:30:12.527Z,16.95
2023-04-15T04:32:39.264Z,15.52
2023-04-15T04:35:07.198Z,12.68
2023-04-15T04:37:33.902Z,16.98
2023-04-15T04:40:00.717Z,13.30
2023-04-15T04:42:27.678Z,13.23
2023-04-15T04:44:54.377Z,15.30
2023-04-15T04:47:21.370Z,15.07
2023-04-15T04:49:48.062Z,18.23
2023-04-15T04:52:14.868Z,14.52
2023-04-15T04:54:41.574Z,14.52
2023-04-15T04:57:08.199Z,13.88
2023-04-15T04:59:34.945Z,16.17
2023-04-15T05:02:01.799Z,18.80
2023-04-15T05:04:28.605Z,21.42
2023-04-15T05:06:55.711Z,14.95
2023-04-15T05:09:22.450Z,14.10
2023-04-15T05:11:49.190Z,16.15
2023-04-15T05:14:15.875Z,18.42
2023-04-15T05:16:42.606Z,20.77
2023-04-15T05:19:09.373Z,16.60
2023-04-15T05:21:38.283Z,20.05
2023-04-15T05:24:06.518Z,19.55
2023-04-15T05:26:33.251Z,17.48
2023-04-15T05:29:00.273Z,15.27
2023-04-15T05:31:27.300Z,21.67
2023-04-15T05:33:54.156Z,20.45
2023-04-15T05:36:21.209Z,35.35
2023-04-15T05:38:47.968Z,22.25
2023-04-15T05:41:18.404Z,13.77
2023-04-15T05:43:46.467Z,19.63
2023-04-15T05:46:13.211Z,22.67
2023-04-15T05:48:39.933Z,19.85
2023-04-15T05:51:06.769Z,20.42
2023-04-15T05:53:33.504Z,20.85
2023-04-15T05:56:00.226Z,18.33
2023-04-15T05:58:27.119Z,20.92
2023-04-15T06:00:53.901Z,19.85
2023-04-15T06:03:20.684Z,24.50
2023-04-15T06:05:47.427Z,15.90
2023-04-15T06:08:14.209Z,18.17
2023-04-15T06:10:41.167Z,17.73
2023-04-15T06:13:08.082Z,21.17
2023-04-15T06:15:34.748Z,17.60
2023-04-15T06:18:01.553Z,17.80
2023-04-15T06:20:28.736Z,20.25
2023-04-15T06:22:55.642Z,17.33
2023-04-15T06:25:22.586Z,15.57
2023-04-15T06:27:49.330Z,13.98
2023-04-15T06:30:16.155Z,18.20
2023-04-15T06:32:43.092Z,15.07
2023-04-15T06:35:10.105Z,15.25
2023-04-15T06:37:36.902Z,17.52
2023-04-15T06:40:05.181Z,16.05
2023-04-15T06:42:32.210Z,15.60
2023-04-15T06:44:58.886Z,20.90
2023-04-15T06:47:26.736Z,16.52
2023-04-15T06:49:53.414Z,13.90
2023-04-15T06:52:20.160Z,16.95
2023-04-15T06:54:46.976Z,21.02
2023-04-15T06:57:13.658Z,11.30
2023-04-15T06:59:40.515Z,15.98
2023-04-15T07:02:09.279Z,14.93
2023-04-15T07:04:36.126Z,14.52
2023-04-15T07:07:02.862Z,14.38
2023-04-15T07:09:29.763Z,14.13
2023-04-15T07:11:56.454Z,17.38
2023-04-15T07:14:23.133Z,13.60
2023-04-15T07:16:50.058Z,17.25
2023-04-15T07:19:17.478Z,12.82
2023-04-15T07:21:44.165Z,14.23
2023-04-15T07:24:11.282Z,15.95
2023-04-15T07:26:37.998Z,18.23
2023-04-15T07:29:04.675Z,13.88
2023-04-15T07:31:31.701Z,13.50
2023-04-15T07:33:58.722Z,14.77
2023-04-15T07:36:25.869Z,14.68
2023-04-15T07:38:52.787Z,14.40
2023-04-15T07:41:20.480Z,16.05
2023-04-15T07:43:47.468Z,13.32
2023-04-15T07:46:14.370Z,14.70
2023-04-15T07:48:41.576Z,12.18
2023-04-15T07:51:08.592Z,15.00
2023-04-15T07:53:35.798Z,12.30
2023-04-15T07:56:02.516Z,14.43
2023-04-15T07:58:29.180Z,16.40
2023-04-15T08:00:55.994Z,17.20
2023-04-15T08:03:23.997Z,13.10
2023-04-15T08:05:51.118Z,13.07
2023-04-15T08:08:17.933Z,17.45
2023-04-15T08:10:44.648Z,13.88
2023-04-15T08:13:11.815Z,14.18
2023-04-15T08:15:38.784Z,13.27
2023-04-15T08:18:05.534Z,16.52
2023-04-15T08:20:32.565Z,14.98
2023-04-15T08:22:59.317Z,14.63
2023-04-15T08:25:26.368Z,15.68
2023-04-15T08:27:55.878Z,11.75
2023-04-15T08:30:22.546Z,14.63
2023-04-15T08:32:51.176Z,13.60
2023-04-15T08:35:18.182Z,13.55
2023-04-15T08:37:44.900Z,13.25
2023-04-15T08:40:12.004Z,15.95
2023-04-15T08:42:45.029Z,12.40
2023-04-15T08:45:12.151Z,17.60
2023-04-15T08:47:40.429Z,12.63
2023-04-15T08:50:11.177Z,16.77
2023-04-15T08:52:38.966Z,17.00
2023-04-15T08:55:07.996Z,14.07
2023-04-15T08:57:35.941Z,13.93
2023-04-15T09:00:05.681Z,16.98
2023-04-15T09:02:32.680Z,13.63
2023-04-15T09:04:59.532Z,17.15
2023-04-15T09:07:27.147Z,18.00
2023-04-15T09:09:54.222Z,13.43
2023-04-15T09:12:21.003Z,14.27
2023-04-15T09:14:49.454Z,12.70
2023-04-15T09:17:20.702Z,14.38
2023-04-15T09:19:47.706Z,15.45
2023-04-15T09:22:15.064Z,14.25
2023-04-15T09:24:43.319Z,11.35
2023-04-15T09:27:10.230Z,12.32
2023-04-15T09:29:37.448Z,14.45
2023-04-15T09:32:11.975Z,13.68
2023-04-15T09:34:38.745Z,13.88
2023-04-15T09:37:07.404Z,12.95
2023-04-15T09:40:04.167Z,12.80
2023-04-15T09:42:30.999Z,12.43
2023-04-15T09:45:12.098Z,18.20
2023-04-15T09:47:38.926Z,10.60
2023-04-15T09:50:06.174Z,11.23
2023-04-15T09:52:33.503Z,14.20
2023-04-15T09:55:00.970Z,16.30
2023-04-15T09:57:35.501Z,12.48
2023-04-15T10:00:08.395Z,12.45
2023-04-15T10:02:35.945Z,13.98
2023-04-15T10:05:03.436Z,14.55
2023-04-15T10:07:30.828Z,13.68
2023-04-15T10:10:00.219Z,15.27
2023-04-15T10:12:28.559Z,11.15
2023-04-15T10:15:06.765Z,12.10
2023-04-15T10:17:35.555Z,12.90
2023-04-15T10:20:04.740Z,11.93
2023-04-15T10:22:32.914Z,13.20
2023-04-15T10:25:01.040Z,11.52
2023-04-15T10:27:28.232Z,14.98
2023-04-15T10:29:55.185Z,14.38
2023-04-15T10:32:22.662Z,14.75
2023-04-15T10:34:53.154Z,12.20
2023-04-15T10:37:38.336Z,13.43
2023-04-15T10:40:25.951Z,14.98
2023-04-15T10:42:53.648Z,16.15
2023-04-15T10:45:20.538Z,11.20
2023-04-15T10:47:51.859Z,7.47
2023-04-15T10:52:45.749Z,11.45
2023-04-15T10:55:19.984Z,12.55
2023-04-15T10:57:46.762Z,12.32
2023-04-15T11:00:19.030Z,10.75
2023-04-15T11:03:07.284Z,14.40
2023-04-15T11:05:43.316Z,11.65
2023-04-15T11:08:11.345Z,14.25
2023-04-15T11:10:38.013Z,7.57
2023-04-15T11:13:15.147Z,13.70
2023-04-15T11:15:45.709Z,9.95
2023-04-15T11:18:24.359Z,9.23
2023-04-15T11:20:52.249Z,8.35
2023-04-15T11:23:31.506Z,9.05
2023-04-15T11:26:00.005Z,16.13
2023-04-15T11:28:28.217Z,11.90
2023-04-15T11:30:56.081Z,10.93
2023-04-15T11:33:24.162Z,7.93
2023-04-15T11:35:55.447Z,8.85
2023-04-15T11:38:22.691Z,10.35
2023-04-15T11:40:51.334Z,8.23
2023-04-15T11:43:21.800Z,7.72
2023-04-15T11:45:56.358Z,8.43
2023-04-15T11:48:25.754Z,12.45
2023-04-15T11:51:07.364Z,8.45
2023-04-15T11:53:39.397Z,16.67
2023-04-15T11:56:07.045Z,10.25
2023-04-15T11:58:37.498Z,7.88
2023-04-15T12:01:06.213Z,6.63
2023-04-15T12:03:45.512Z,6.57
2023-04-15T12:06:23.560Z,15.35
2023-04-15T12:09:01.752Z,7.22
2023-04-15T12:11:31.676Z,5.93
2023-04-15T12:14:08.856Z,8.35
2023-04-15T12:16:48.023Z,7.55
2023-04-15T12:19:19.492Z,6.85
2023-04-15T12:21:48.192Z,7.38
2023-04-15T12:24:15.454Z,8.77
2023-04-15T12:26:50.646Z,6.25
2023-04-15T12:29:17.913Z,6.18
2023-04-15T12:31:53.026Z,7.88
2023-04-15T12:34:28.578Z,6.38
2023-04-15T12:36:56.094Z,6.35
2023-04-15T12:39:25.006Z,6.28
2023-04-15T12:41:52.519Z,5.80
2023-04-15T12:44:19.344Z,8.95
2023-04-15T12:46:46.957Z,5.05
2023-04-15T12:49:19.568Z,7.28
2023-04-15T12:51:47.236Z,5.25
2023-04-15T12:54:13.938Z,5.57
2023-04-15T12:56:40.707Z,7.78
2023-04-15T12:59:07.424Z,4.80
2023-04-15T13:01:34.275Z,8.85
2023-04-15T13:04:01.335Z,4.88
2023-04-15T13:06:29.348Z,4.15
2023-04-15T13:08:58.613Z,5.65
2023-04-15T13:11:26.142Z,10.55
2023-04-15T13:13:53.091Z,5.60
2023-04-15T13:16:19.949Z,3.53
2023-04-15T13:18:47.088Z,8.88
2023-04-15T13:21:13.977Z,5.95
2023-04-15T13:23:43.572Z,6.88
2023-04-15T13:26:10.770Z,12.07
2023-04-15T13:28:37.588Z,7.22
2023-04-15T13:31:05.769Z,4.57
2023-04-15T13:33:32.517Z,5.40
2023-04-15T13:35:59.219Z,6.97
2023-04-15T13:38:26.174Z,5.28
2023-04-15T13:40:52.999Z,7.57
2023-04-15T13:43:19.803Z,6.93
2023-04-15T13:45:47.135Z,4.45
2023-04-15T13:48:14.159Z,4.75
2023-04-15T13:50:45.773Z,6.00
2023-04-15T13:53:13.126Z,4.15
2023-04-15T13:55:41.781Z,4.60
2023-04-15T13:58:11.706Z,8.15
2023-04-15T14:00:38.470Z,4.75
2023-04-15T14:03:05.434Z,6.15
2023-04-15T14:05:33.149Z,4.25
2023-04-15T14:08:00.533Z,4.85
2023-04-15T14:10:27.475Z,6.60
2023-04-15T14:12:54.210Z,3.35
2023-04-15T14:15:21.690Z,6.65
2023-04-15T14:17:48.538Z,7.22
2023-04-15T14:20:17.135Z,7.18
2023-04-15T14:22:44.400Z,6.05
2023-04-15T14:25:17.294Z,6.03
2023-04-15T14:27:50.553Z,6.53
2023-04-15T14:30:17.584Z,5.13
2023-04-15T14:32:44.377Z,5.80
2023-04-15T14:35:11.924Z,4.80
2023-04-15T14:37:38.678Z,11.90
2023-04-15T14:40:06.145Z,5.88
2023-04-15T14:42:32.813Z,5.70
2023-04-15T14:44:59.666Z,6.30
2023-04-15T14:47:26.456Z,3.65
2023-04-15T14:49:53.386Z,8.93
2023-04-15T14:52:20.270Z,6.80
2023-04-15T14:54:46.999Z,5.88
2023-04-15T14:57:13.940Z,7.55
2023-04-15T14:59:40.710Z,5.78
2023-04-15T15:02:08.641Z,6.43
2023-04-15T15:04:36.448Z,8.00
2023-04-15T15:07:03.323Z,4.43
2023-04-15T15:09:30.328Z,5.32
2023-04-15T15:11:57.319Z,4.60
2023-04-15T15:14:24.517Z,5.55
2023-04-15T15:16:51.311Z,6.88
2023-04-15T15:19:18.127Z,4.00
2023-04-15T15:21:44.890Z,9.20
2023-04-15T15:24:11.648Z,3.88
2023-04-15T15:26:38.580Z,4.57
2023-04-15T15:29:05.606Z,5.55
2023-04-15T15:31:34.669Z,4.20
2023-04-15T15:34:01.838Z,5.32
2023-04-15T15:36:29.823Z,4.30
2023-04-15T15:38:57.295Z,6.15
2023-04-15T15:41:24.264Z,7.00
2023-04-15T15:43:51.533Z,6.40
2023-04-15T15:46:18.361Z,5.40
2023-04-15T15:48:45.160Z,3.92
2023-04-15T15:51:12.713Z,5.13
2023-04-15T15:53:39.871Z,6.43
2023-04-15T15:56:06.718Z,4.47
2023-04-15T15:58:34.215Z,4.63
2023-04-15T16:01:01.933Z,5.50
2023-04-15T16:03:29.538Z,5.60
2023-04-15T16:05:56.480Z,4.68
2023-04-15T16:08:23.221Z,4.57
2023-04-15T16:10:49.989Z,6.13
2023-04-15T16:13:16.799Z,6.93
2023-04-15T16:15:43.613Z,6.80
2023-04-15T16:18:10.357Z,6.63
2023-04-15T16:20:38.812Z,6.82
2023-04-15T16:23:13.501Z,5.50
2023-04-15T16:25:42.174Z,5.53
2023-04-15T16:28:23.155Z,5.53
2023-04-15T16:30:53.103Z,5.47
2023-04-15T16:33:19.892Z,8.48
2023-04-15T16:35:46.694Z,5.75
2023-04-15T16:38:13.713Z,8.52
2023-04-15T16:40:40.526Z,9.02
2023-04-15T16:43:08.243Z,4.78
2023-04-15T16:45:35.013Z,6.50
2023-04-15T16:48:01.930Z,6.22
2023-04-15T16:50:29.385Z,5.35
2023-04-15T16:52:56.501Z,4.97
2023-04-15T16:55:23.473Z,8.48
2023-04-15T16:58:00.501Z,6.25
2023-04-15T17:00:29.132Z,8.35
2023-04-15T17:02:56.482Z,5.53
2023-04-15T17:05:23.556Z,5.95
2023-04-15T17:07:50.502Z,6.85
2023-04-15T17:10:17.647Z,6.32
2023-04-15T17:12:44.722Z,5.90
2023-04-15T17:15:11.555Z,5.82
2023-04-15T17:17:38.663Z,9.75
2023-04-15T17:20:06.217Z,6.07
2023-04-15T17:22:33.705Z,5.55
2023-04-15T17:25:00.836Z,9.85
2023-04-15T17:27:29.091Z,6.80
2023-04-15T17:29:56.319Z,6.20
2023-04-15T17:32:23.999Z,4.75
2023-04-15T17:34:51.489Z,7.78
2023-04-15T17:37:18.600Z,7.13
2023-04-15T17:39:45.500Z,7.43
2023-04-15T17:42:13.363Z,6.72
2023-04-15T17:44:44.012Z,9.40
2023-04-15T17:47:12.426Z,5.72
2023-04-15T17:49:39.275Z,6.35
2023-04-15T17:52:10.210Z,6.10
2023-04-15T17:54:37.429Z,4.60
2023-04-15T17:57:04.462Z,5.85
2023-04-15T17:59:31.200Z,9.35
2023-04-15T18:01:58.874Z,8.38
2023-04-15T18:04:26.889Z,5.32
2023-04-15T18:06:54.537Z,6.07
2023-04-15T18:09:22.390Z,6.10
2023-04-15T18:11:49.376Z,7.43
2023-04-15T18:14:31.112Z,4.05
2023-04-15T18:17:02.203Z,6.68
2023-04-15T18:19:32.443Z,7.72
2023-04-15T18:22:02.183Z,7.57
2023-04-15T18:24:29.105Z,6.78
2023-04-15T18:26:56.694Z,9.13
2023-04-15T18:29:26.950Z,6.75
2023-04-15T18:31:53.922Z,4.85
2023-04-15T18:34:21.029Z,5.53
2023-04-15T18:36:47.806Z,7.57
2023-04-15T18:39:14.820Z,5.60
2023-04-15T18:41:41.487Z,5.22
2023-04-15T18:44:08.502Z,5.60
2023-04-15T18:46:35.827Z,8.20
2023-04-15T18:49:07.039Z,5.80
2023-04-15T18:54:02.039Z,5.72
2023-04-15T18:56:30.370Z,5.68
2023-04-15T18:59:09.388Z,5.00
2023-04-15T19:01:49.166Z,6.45
2023-04-15T19:04:16.600Z,6.57
2023-04-15T19:06:43.597Z,6.88
2023-04-15T19:09:10.629Z,5.95
2023-04-15T19:11:41.791Z,4.60
2023-04-15T19:14:08.739Z,5.72
2023-04-15T19:16:35.946Z,4.57
2023-04-15T19:19:06.911Z,7.47
2023-04-15T19:21:34.070Z,5.50
2023-04-15T19:24:01.303Z,6.32
2023-04-15T19:26:28.433Z,6.03
2023-04-15T19:28:58.801Z,4.75
2023-04-15T19:31:26.501Z,6.47
2023-04-15T19:33:53.465Z,5.75
2023-04-15T19:36:24.091Z,4.07
2023-04-15T19:38:54.301Z,4.97
2023-04-15T19:41:24.519Z,9.13
2023-04-15T19:43:51.487Z,7.32
2023-04-15T19:46:18.875Z,7.78
2023-04-15T19:48:49.060Z,6.03
2023-04-15T19:51:19.542Z,5.50
2023-04-15T19:53:46.765Z,3.88
2023-04-15T19:56:16.582Z,5.82
2023-04-15T19:58:52.811Z,5.32
2023-04-15T20:01:20.744Z,4.75
2023-04-15T20:03:48.316Z,5.93
2023-04-15T20:06:19.404Z,6.45
2023-04-15T20:08:46.455Z,6.00
2023-04-15T20:11:13.409Z,5.43
2023-04-15T20:13:42.347Z,7.38
2023-04-15T20:16:13.630Z,8.20
2023-04-15T20:18:40.740Z,9.20
2023-04-15T20:21:14.412Z,5.35
2023-04-15T20:23:41.391Z,6.28
2023-04-15T20:26:12.233Z,7.88
2023-04-15T20:28:39.283Z,7.07
2023-04-15T20:31:07.490Z,8.20
2023-04-15T20:33:35.699Z,5.53
2023-04-15T20:36:02.593Z,5.30
2023-04-15T20:38:29.733Z,6.63
2023-04-15T20:40:57.900Z,6.72
2023-04-15T20:43:26.110Z,6.05
2023-04-15T20:45:54.191Z,7.43
2023-04-15T20:48:22.868Z,5.43
2023-04-15T20:50:50.594Z,5.60
2023-04-15T20:53:20.961Z,6.25
2023-04-15T20:55:47.942Z,6.68
2023-04-15T20:58:18.055Z,5.95
2023-04-15T21:00:46.452Z,6.35
2023-04-15T21:03:13.467Z,7.57
2023-04-15T21:05:40.784Z,7.55
2023-04-15T21:08:07.632Z,5.57
2023-04-15T21:10:35.340Z,7.88
2023-04-15T21:13:02.758Z,8.45
2023-04-15T21:15:29.534Z,5.85
2023-04-15T21:17:56.330Z,8.60
2023-04-15T21:20:23.205Z,10.10
2023-04-15T21:22:50.024Z,5.55
2023-04-15T21:25:16.760Z,6.78
2023-04-15T21:27:43.628Z,7.18
2023-04-15T21:30:11.049Z,6.47
2023-04-15T21:32:37.889Z,10.73
2023-04-15T21:35:05.179Z,9.13
2023-04-15T21:37:32.555Z,5.03
2023-04-15T21:39:59.567Z,5.97
2023-04-15T21:42:26.292Z,7.32
2023-04-15T21:44:53.088Z,5.55
2023-04-15T21:47:20.093Z,9.32
2023-04-15T21:49:47.015Z,6.30
2023-04-15T21:52:13.791Z,10.32
2023-04-15T21:54:40.845Z,5.43
2023-04-15T21:57:07.592Z,5.90
2023-04-15T21:59:34.321Z,5.10
2023-04-15T22:02:01.492Z,5.88
2023-04-15T22:04:28.327Z,7.32
2023-04-15T22:06:59.740Z,7.47
2023-04-15T22:09:26.611Z,8.95
2023-04-15T22:11:53.391Z,9.43
2023-04-15T22:14:20.511Z,7.15
2023-04-15T22:16:47.280Z,7.20
2023-04-15T22:19:14.289Z,6.07
2023-04-15T22:21:41.212Z,8.35
2023-04-15T22:24:33.159Z,6.38
2023-04-15T22:26:54.816Z,7.22
2023-04-15T22:29:22.159Z,5.75
2023-04-15T22:31:49.227Z,6.93
2023-04-15T22:34:21.276Z,5.63
2023-04-15T22:36:52.415Z,7.78
2023-04-15T22:39:19.752Z,7.00
2023-04-15T22:41:47.451Z,7.45
2023-04-15T22:44:14.181Z,8.88
2023-04-15T22:46:41.264Z,8.48
2023-04-15T22:49:09.617Z,7.93
2023-04-15T22:51:39.874Z,5.32
2023-04-15T22:54:06.894Z,5.20
2023-04-15T22:56:33.785Z,6.88
2023-04-15T22:59:00.594Z,6.95
2023-04-15T23:01:27.634Z,8.65
2023-04-15T23:03:57.054Z,4.75
2023-04-15T23:06:27.316Z,7.85
2023-04-15T23:08:54.209Z,7.53
2023-04-15T23:11:21.163Z,6.57
2023-04-15T23:13:51.182Z,9.48
2023-04-15T23:16:17.995Z,8.35
2023-04-15T23:18:44.823Z,6.70
2023-04-15T23:21:11.529Z,8.15
2023-04-15T23:23:38.374Z,5.82
2023-04-15T23:26:05.337Z,7.35
2023-04-15T23:28:32.433Z,6.65
2023-04-15T23:31:00.681Z,9.55
2023-04-15T23:33:27.569Z,6.28
2023-04-15T23:35:54.418Z,8.57
2023-04-15T23:38:21.255Z,6.07
2023-04-15T23:40:48.006Z,8.35
2023-04-15T23:43:15.009Z,6.25
2023-04-15T23:45:46.010Z,9.15
2023-04-15T23:48:12.811Z,6.00
2023-04-15T23:50:39.661Z,7.53
2023-04-15T23:53:06.495Z,7.85
2023-04-15T23:55:33.188Z,6.88
2023-04-15T23:57:59.898Z,5.45
